sensor_id;sensor_type;location;lat;lon;timestamp;temperature;humidity
72762;SHT30;60886;55.034;73.150;2024-03-23T00:55:06;-7.43;78.79
72762;SHT30;60886;55.034;73.150;2024-03-23T00:58:09;-7.43;78.79
72762;SHT30;60886;55.034;73.150;2024-03-23T01:01:10;-7.37;78.87
72762;SHT30;60886;55.034;73.150;2024-03-23T01:04:12;-7.43;78.76
72762;SHT30;60886;55.034;73.150;2024-03-23T01:07:13;-7.43;78.54
72762;SHT30;60886;55.034;73.150;2024-03-23T01:10:15;-7.33;78.98
72762;SHT30;60886;55.034;73.150;2024-03-23T01:13:16;-7.33;78.30
72762;SHT30;60886;55.034;73.150;2024-03-23T01:16:22;-7.30;78.32
72762;SHT30;60886;55.034;73.150;2024-03-23T01:19:23;-7.27;78.50
72762;SHT30;60886;55.034;73.150;2024-03-23T01:22:25;-7.36;77.67
72762;SHT30;60886;55.034;73.150;2024-03-23T01:25:26;-7.36;78.03
72762;SHT30;60886;55.034;73.150;2024-03-23T01:28:28;-7.36;78.20
72762;SHT30;60886;55.034;73.150;2024-03-23T01:31:38;-7.44;78.30
72762;SHT30;60886;55.034;73.150;2024-03-23T01:34:40;-7.43;78.78
72762;SHT30;60886;55.034;73.150;2024-03-23T01:37:41;-7.44;78.31
72762;SHT30;60886;55.034;73.150;2024-03-23T01:40:42;-7.23;79.07
72762;SHT30;60886;55.034;73.150;2024-03-23T01:43:44;-7.10;78.35
72762;SHT30;60886;55.034;73.150;2024-03-23T01:46:46;-6.87;78.29
72762;SHT30;60886;55.034;73.150;2024-03-23T01:49:48;-6.71;76.89
72762;SHT30;60886;55.034;73.150;2024-03-23T01:52:50;-6.48;77.17
72762;SHT30;60886;55.034;73.150;2024-03-23T01:55:52;-6.35;76.38
72762;SHT30;60886;55.034;73.150;2024-03-23T01:58:53;-6.27;76.27
72762;SHT30;60886;55.034;73.150;2024-03-23T02:01:55;-6.20;76.08
72762;SHT30;60886;55.034;73.150;2024-03-23T02:04:58;-6.20;75.70
72762;SHT30;60886;55.034;73.150;2024-03-23T02:07:59;-6.14;75.35
72762;SHT30;60886;55.034;73.150;2024-03-23T02:11:01;-5.90;75.60
72762;SHT30;60886;55.034;73.150;2024-03-23T02:14:03;-5.66;74.82
72762;SHT30;60886;55.034;73.150;2024-03-23T02:17:04;-5.62;74.44
72762;SHT30;60886;55.034;73.150;2024-03-23T02:20:06;-5.40;74.55
72762;SHT30;60886;55.034;73.150;2024-03-23T02:23:15;-5.07;73.91
72762;SHT30;60886;55.034;73.150;2024-03-23T02:26:17;-5.01;73.29
72762;SHT30;60886;55.034;73.150;2024-03-23T02:29:18;-5.12;73.23
72762;SHT30;60886;55.034;73.150;2024-03-23T02:32:21;-5.28;73.66
72762;SHT30;60886;55.034;73.150;2024-03-23T02:35:22;-5.32;73.88
72762;SHT30;60886;55.034;73.150;2024-03-23T02:38:24;-5.22;73.93
72762;SHT30;60886;55.034;73.150;2024-03-23T02:41:25;-5.11;74.22
72762;SHT30;60886;55.034;73.150;2024-03-23T02:44:27;-5.19;73.72
72762;SHT30;60886;55.034;73.150;2024-03-23T02:47:28;-5.05;74.24
72762;SHT30;60886;55.034;73.150;2024-03-23T02:50:30;-5.14;73.66
72762;SHT30;60886;55.034;73.150;2024-03-23T02:53:32;-4.76;73.31
72762;SHT30;60886;55.034;73.150;2024-03-23T02:56:38;-4.39;72.91
72762;SHT30;60886;55.034;73.150;2024-03-23T02:59:39;-4.36;71.83
72762;SHT30;60886;55.034;73.150;2024-03-23T03:02:41;-4.25;71.88
72762;SHT30;60886;55.034;73.150;2024-03-23T03:05:42;-4.18;71.38
72762;SHT30;60886;55.034;73.150;2024-03-23T03:08:44;-4.33;71.21
72762;SHT30;60886;55.034;73.150;2024-03-23T03:11:45;-4.39;71.20
72762;SHT30;60886;55.034;73.150;2024-03-23T03:14:47;-4.02;71.34
72762;SHT30;60886;55.034;73.150;2024-03-23T03:17:49;-3.85;71.35
72762;SHT30;60886;55.034;73.150;2024-03-23T03:20:54;-3.68;70.51
72762;SHT30;60886;55.034;73.150;2024-03-23T03:23:56;-3.77;70.30
72762;SHT30;60886;55.034;73.150;2024-03-23T03:26:58;-3.47;70.57
72762;SHT30;60886;55.034;73.150;2024-03-23T03:30:00;-3.36;69.99
72762;SHT30;60886;55.034;73.150;2024-03-23T03:33:05;-3.64;69.45
72762;SHT30;60886;55.034;73.150;2024-03-23T03:36:06;-3.48;70.43
72762;SHT30;60886;55.034;73.150;2024-03-23T03:39:08;-3.29;70.03
72762;SHT30;60886;55.034;73.150;2024-03-23T03:42:09;-3.19;69.16
72762;SHT30;60886;55.034;73.150;2024-03-23T03:45:12;-3.32;69.59
72762;SHT30;60886;55.034;73.150;2024-03-23T03:48:14;-3.09;69.18
72762;SHT30;60886;55.034;73.150;2024-03-23T03:51:15;-2.76;68.45
72762;SHT30;60886;55.034;73.150;2024-03-23T03:54:17;-2.58;68.83
72762;SHT30;60886;55.034;73.150;2024-03-23T03:57:18;-2.86;67.97
72762;SHT30;60886;55.034;73.150;2024-03-23T04:00:20;-2.49;69.45
72762;SHT30;60886;55.034;73.150;2024-03-23T04:03:22;-2.20;68.31
72762;SHT30;60886;55.034;73.150;2024-03-23T04:06:24;-2.28;67.70
72762;SHT30;60886;55.034;73.150;2024-03-23T04:09:25;-2.15;68.66
72762;SHT30;60886;55.034;73.150;2024-03-23T04:12:27;-1.89;67.16
72762;SHT30;60886;55.034;73.150;2024-03-23T04:15:28;-1.59;67.04
72762;SHT30;60886;55.034;73.150;2024-03-23T04:18:30;-1.45;67.49
72762;SHT30;60886;55.034;73.150;2024-03-23T04:21:38;-1.53;66.24
72762;SHT30;60886;55.034;73.150;2024-03-23T04:24:40;-1.46;66.72
72762;SHT30;60886;55.034;73.150;2024-03-23T04:27:41;-1.29;65.40
72762;SHT30;60886;55.034;73.150;2024-03-23T04:30:43;-1.63;65.32
72762;SHT30;60886;55.034;73.150;2024-03-23T04:33:44;-1.53;66.94
72762;SHT30;60886;55.034;73.150;2024-03-23T04:36:46;-1.27;65.68
72762;SHT30;60886;55.034;73.150;2024-03-23T04:39:48;-1.66;66.27
72762;SHT30;60886;55.034;73.150;2024-03-23T04:42:50;-1.56;67.02
72762;SHT30;60886;55.034;73.150;2024-03-23T04:45:52;-1.16;66.79
72762;SHT30;60886;55.034;73.150;2024-03-23T04:48:53;-1.09;65.12
72762;SHT30;60886;55.034;73.150;2024-03-23T04:51:55;-1.34;66.59
72762;SHT30;60886;55.034;73.150;2024-03-23T04:54:56;-1.00;65.74
72762;SHT30;60886;55.034;73.150;2024-03-23T04:57:58;-1.31;66.41
72762;SHT30;60886;55.034;73.150;2024-03-23T05:00:59;-1.04;66.58
72762;SHT30;60886;55.034;73.150;2024-03-23T05:04:01;-0.88;65.77
72762;SHT30;60886;55.034;73.150;2024-03-23T05:07:07;-0.88;65.78
72762;SHT30;60886;55.034;73.150;2024-03-23T05:10:09;-0.63;65.90
72762;SHT30;60886;55.034;73.150;2024-03-23T05:13:12;-0.67;64.59
72762;SHT30;60886;55.034;73.150;2024-03-23T05:16:14;-0.90;64.98
72762;SHT30;60886;55.034;73.150;2024-03-23T05:19:15;-1.24;65.10
72762;SHT30;60886;55.034;73.150;2024-03-23T05:22:17;-0.94;66.06
72762;SHT30;60886;55.034;73.150;2024-03-23T05:25:18;-0.85;64.93
72762;SHT30;60886;55.034;73.150;2024-03-23T05:28:21;-1.01;65.54
72762;SHT30;60886;55.034;73.150;2024-03-23T05:31:24;-0.67;65.75
72762;SHT30;60886;55.034;73.150;2024-03-23T05:34:26;-0.61;65.65
72762;SHT30;60886;55.034;73.150;2024-03-23T05:37:27;-0.56;64.57
72762;SHT30;60886;55.034;73.150;2024-03-23T05:40:29;-0.20;64.90
72762;SHT30;60886;55.034;73.150;2024-03-23T05:43:32;-0.09;64.19
72762;SHT30;60886;55.034;73.150;2024-03-23T05:46:38;-0.12;64.94
72762;SHT30;60886;55.034;73.150;2024-03-23T05:49:40;0.01;64.52
72762;SHT30;60886;55.034;73.150;2024-03-23T05:52:43;-0.29;64.33
72762;SHT30;60886;55.034;73.150;2024-03-23T05:55:44;-0.54;65.26
72762;SHT30;60886;55.034;73.150;2024-03-23T05:58:46;-0.37;65.64
72762;SHT30;60886;55.034;73.150;2024-03-23T06:01:48;-0.30;66.28
72762;SHT30;60886;55.034;73.150;2024-03-23T06:04:50;-0.01;65.39
72762;SHT30;60886;55.034;73.150;2024-03-23T06:07:51;0.25;64.73
72762;SHT30;60886;55.034;73.150;2024-03-23T06:10:53;0.07;64.26
72762;SHT30;60886;55.034;73.150;2024-03-23T06:13:55;0.04;64.42
72762;SHT30;60886;55.034;73.150;2024-03-23T06:16:57;0.28;64.30
72762;SHT30;60886;55.034;73.150;2024-03-23T06:19:58;0.28;64.16
72762;SHT30;60886;55.034;73.150;2024-03-23T06:23:01;0.24;64.63
72762;SHT30;60886;55.034;73.150;2024-03-23T06:26:04;0.37;64.56
72762;SHT30;60886;55.034;73.150;2024-03-23T06:29:05;0.26;64.13
72762;SHT30;60886;55.034;73.150;2024-03-23T06:32:07;0.28;63.84
72762;SHT30;60886;55.034;73.150;2024-03-23T06:35:08;0.12;64.00
72762;SHT30;60886;55.034;73.150;2024-03-23T06:38:10;0.17;64.47
72762;SHT30;60886;55.034;73.150;2024-03-23T06:41:12;0.08;64.41
72762;SHT30;60886;55.034;73.150;2024-03-23T06:44:14;-0.13;64.64
72762;SHT30;60886;55.034;73.150;2024-03-23T06:47:15;-0.13;65.10
72762;SHT30;60886;55.034;73.150;2024-03-23T06:50:17;0.07;65.77
72762;SHT30;60886;55.034;73.150;2024-03-23T06:53:18;0.35;64.84
72762;SHT30;60886;55.034;73.150;2024-03-23T06:56:20;0.41;64.87
72762;SHT30;60886;55.034;73.150;2024-03-23T06:59:22;0.66;63.98
72762;SHT30;60886;55.034;73.150;2024-03-23T07:02:24;0.75;63.68
72762;SHT30;60886;55.034;73.150;2024-03-23T07:05:26;0.65;63.70
72762;SHT30;60886;55.034;73.150;2024-03-23T07:08:27;0.56;63.49
72762;SHT30;60886;55.034;73.150;2024-03-23T07:11:38;0.52;63.32
72762;SHT30;60886;55.034;73.150;2024-03-23T07:14:39;0.69;63.07
72762;SHT30;60886;55.034;73.150;2024-03-23T07:17:55;0.72;63.89
72762;SHT30;60886;55.034;73.150;2024-03-23T07:20:58;0.82;62.68
72762;SHT30;60886;55.034;73.150;2024-03-23T07:23:59;1.17;62.73
72762;SHT30;60886;55.034;73.150;2024-03-23T07:27:00;1.30;63.04
72762;SHT30;60886;55.034;73.150;2024-03-23T07:30:03;1.31;62.48
72762;SHT30;60886;55.034;73.150;2024-03-23T07:33:05;1.33;61.27
72762;SHT30;60886;55.034;73.150;2024-03-23T07:36:07;1.47;61.91
72762;SHT30;60886;55.034;73.150;2024-03-23T07:39:09;1.40;61.56
72762;SHT30;60886;55.034;73.150;2024-03-23T07:42:10;1.44;62.17
72762;SHT30;60886;55.034;73.150;2024-03-23T07:45:12;1.48;61.79
72762;SHT30;60886;55.034;73.150;2024-03-23T07:48:14;1.38;61.99
72762;SHT30;60886;55.034;73.150;2024-03-23T07:51:21;1.33;62.18
72762;SHT30;60886;55.034;73.150;2024-03-23T07:54:23;1.31;62.36
72762;SHT30;60886;55.034;73.150;2024-03-23T07:57:24;1.27;62.31
72762;SHT30;60886;55.034;73.150;2024-03-23T08:00:26;1.26;63.93
72762;SHT30;60886;55.034;73.150;2024-03-23T08:03:27;1.10;61.81
72762;SHT30;60886;55.034;73.150;2024-03-23T08:06:38;1.24;62.73
72762;SHT30;60886;55.034;73.150;2024-03-23T08:09:39;1.30;62.09
72762;SHT30;60886;55.034;73.150;2024-03-23T08:12:41;1.24;62.23
72762;SHT30;60886;55.034;73.150;2024-03-23T08:15:43;1.30;61.81
72762;SHT30;60886;55.034;73.150;2024-03-23T08:18:54;1.21;63.10
72762;SHT30;60886;55.034;73.150;2024-03-23T08:21:57;1.35;64.28
72762;SHT30;60886;55.034;73.150;2024-03-23T08:24:58;1.55;63.42
72762;SHT30;60886;55.034;73.150;2024-03-23T08:28:00;1.58;63.25
72762;SHT30;60886;55.034;73.150;2024-03-23T08:31:04;1.45;63.00
72762;SHT30;60886;55.034;73.150;2024-03-23T08:34:08;1.33;63.59
72762;SHT30;60886;55.034;73.150;2024-03-23T08:37:10;1.24;62.71
72762;SHT30;60886;55.034;73.150;2024-03-23T08:40:16;1.31;63.23
72762;SHT30;60886;55.034;73.150;2024-03-23T08:43:18;1.28;62.45
72762;SHT30;60886;55.034;73.150;2024-03-23T08:46:20;1.28;62.30
72762;SHT30;60886;55.034;73.150;2024-03-23T08:49:22;1.16;62.55
72762;SHT30;60886;55.034;73.150;2024-03-23T08:52:23;1.27;63.42
72762;SHT30;60886;55.034;73.150;2024-03-23T08:55:26;1.19;62.73
72762;SHT30;60886;55.034;73.150;2024-03-23T08:58:29;1.16;63.00
72762;SHT30;60886;55.034;73.150;2024-03-23T09:01:38;1.14;62.80
72762;SHT30;60886;55.034;73.150;2024-03-23T09:04:39;1.27;63.19
72762;SHT30;60886;55.034;73.150;2024-03-23T09:07:41;1.30;63.10
72762;SHT30;60886;55.034;73.150;2024-03-23T09:10:42;1.17;62.64
72762;SHT30;60886;55.034;73.150;2024-03-23T09:13:44;1.28;63.80
72762;SHT30;60886;55.034;73.150;2024-03-23T09:16:46;1.33;64.07
72762;SHT30;60886;55.034;73.150;2024-03-23T09:19:47;1.48;63.94
72762;SHT30;60886;55.034;73.150;2024-03-23T09:22:49;1.38;64.78
72762;SHT30;60886;55.034;73.150;2024-03-23T09:25:50;1.50;63.74
72762;SHT30;60886;55.034;73.150;2024-03-23T09:28:52;1.52;64.03
72762;SHT30;60886;55.034;73.150;2024-03-23T09:31:53;1.40;63.45
72762;SHT30;60886;55.034;73.150;2024-03-23T09:34:54;1.26;63.44
72762;SHT30;60886;55.034;73.150;2024-03-23T09:37:56;1.13;64.45
72762;SHT30;60886;55.034;73.150;2024-03-23T09:40:58;1.23;65.39
72762;SHT30;60886;55.034;73.150;2024-03-23T09:44:00;1.28;63.60
72762;SHT30;60886;55.034;73.150;2024-03-23T09:47:02;1.16;63.89
72762;SHT30;60886;55.034;73.150;2024-03-23T09:50:04;1.05;63.47
72762;SHT30;60886;55.034;73.150;2024-03-23T09:53:08;1.16;64.73
72762;SHT30;60886;55.034;73.150;2024-03-23T09:56:10;1.21;64.94
72762;SHT30;60886;55.034;73.150;2024-03-23T09:59:11;1.38;64.80
72762;SHT30;60886;55.034;73.150;2024-03-23T10:02:13;1.51;65.31
72762;SHT30;60886;55.034;73.150;2024-03-23T10:05:22;1.35;64.77
72762;SHT30;60886;55.034;73.150;2024-03-23T10:08:24;1.31;64.83
72762;SHT30;60886;55.034;73.150;2024-03-23T10:11:27;1.37;65.22
72762;SHT30;60886;55.034;73.150;2024-03-23T10:14:30;1.35;64.93
72762;SHT30;60886;55.034;73.150;2024-03-23T10:17:32;1.44;65.30
72762;SHT30;60886;55.034;73.150;2024-03-23T10:20:33;1.48;64.43
72762;SHT30;60886;55.034;73.150;2024-03-23T10:23:36;1.51;65.27
72762;SHT30;60886;55.034;73.150;2024-03-23T10:26:38;1.56;64.64
72762;SHT30;60886;55.034;73.150;2024-03-23T10:29:41;1.40;64.68
72762;SHT30;60886;55.034;73.150;2024-03-23T10:32:42;1.37;64.73
72762;SHT30;60886;55.034;73.150;2024-03-23T10:35:45;1.37;65.15
72762;SHT30;60886;55.034;73.150;2024-03-23T10:38:50;1.30;64.07
72762;SHT30;60886;55.034;73.150;2024-03-23T10:41:53;1.21;65.15
72762;SHT30;60886;55.034;73.150;2024-03-23T10:44:58;1.34;65.31
72762;SHT30;60886;55.034;73.150;2024-03-23T10:48:00;1.33;65.14
72762;SHT30;60886;55.034;73.150;2024-03-23T10:51:01;1.23;65.18
72762;SHT30;60886;55.034;73.150;2024-03-23T10:54:06;1.28;65.38
72762;SHT30;60886;55.034;73.150;2024-03-23T10:57:13;1.35;64.61
72762;SHT30;60886;55.034;73.150;2024-03-23T11:00:16;1.34;64.69
72762;SHT30;60886;55.034;73.150;2024-03-23T11:03:31;1.19;65.63
72762;SHT30;60886;55.034;73.150;2024-03-23T11:06:38;1.26;65.96
72762;SHT30;60886;55.034;73.150;2024-03-23T11:09:43;1.27;66.59
72762;SHT30;60886;55.034;73.150;2024-03-23T11:12:46;1.19;66.71
72762;SHT30;60886;55.034;73.150;2024-03-23T11:15:48;1.07;66.06
72762;SHT30;60886;55.034;73.150;2024-03-23T11:18:50;1.11;66.65
72762;SHT30;60886;55.034;73.150;2024-03-23T11:21:53;1.13;67.10
72762;SHT30;60886;55.034;73.150;2024-03-23T11:24:55;0.96;67.06
72762;SHT30;60886;55.034;73.150;2024-03-23T11:28:10;0.94;67.41
72762;SHT30;60886;55.034;73.150;2024-03-23T11:31:14;1.01;67.43
72762;SHT30;60886;55.034;73.150;2024-03-23T11:34:18;1.01;66.91
72762;SHT30;60886;55.034;73.150;2024-03-23T11:37:32;0.94;67.29
72762;SHT30;60886;55.034;73.150;2024-03-23T11:40:38;0.89;68.15
72762;SHT30;60886;55.034;73.150;2024-03-23T11:43:40;0.89;68.20
72762;SHT30;60886;55.034;73.150;2024-03-23T11:46:42;0.87;68.14
72762;SHT30;60886;55.034;73.150;2024-03-23T11:49:49;0.79;68.68
72762;SHT30;60886;55.034;73.150;2024-03-23T11:52:51;0.79;68.95
72762;SHT30;60886;55.034;73.150;2024-03-23T11:55:55;0.59;68.57
72762;SHT30;60886;55.034;73.150;2024-03-23T11:59:00;0.58;68.79
72762;SHT30;60886;55.034;73.150;2024-03-23T12:02:08;0.55;69.18
72762;SHT30;60886;55.034;73.150;2024-03-23T12:05:15;0.44;68.34
72762;SHT30;60886;55.034;73.150;2024-03-23T12:08:35;0.30;68.96
72762;SHT30;60886;55.034;73.150;2024-03-23T12:11:38;0.18;68.75
72762;SHT30;60886;55.034;73.150;2024-03-23T12:14:39;0.15;69.23
72762;SHT30;60886;55.034;73.150;2024-03-23T12:17:41;0.11;68.74
72762;SHT30;60886;55.034;73.150;2024-03-23T12:20:55;-0.02;69.56
72762;SHT30;60886;55.034;73.150;2024-03-23T12:23:56;-0.09;69.42
72762;SHT30;60886;55.034;73.150;2024-03-23T12:27:18;-0.12;69.35
72762;SHT30;60886;55.034;73.150;2024-03-23T12:30:19;-0.20;69.61
72762;SHT30;60886;55.034;73.150;2024-03-23T12:33:21;-0.33;70.10
72762;SHT30;60886;55.034;73.150;2024-03-23T12:36:22;-0.46;70.80
72762;SHT30;60886;55.034;73.150;2024-03-23T12:39:25;-0.56;70.27
72762;SHT30;60886;55.034;73.150;2024-03-23T12:42:26;-0.71;70.46
72762;SHT30;60886;55.034;73.150;2024-03-23T12:45:28;-0.87;70.68
72762;SHT30;60886;55.034;73.150;2024-03-23T12:48:29;-0.94;71.66
72762;SHT30;60886;55.034;73.150;2024-03-23T12:51:38;-1.07;71.34
72762;SHT30;60886;55.034;73.150;2024-03-23T12:54:40;-1.08;71.22
72762;SHT30;60886;55.034;73.150;2024-03-23T12:57:52;-1.21;71.14
72762;SHT30;60886;55.034;73.150;2024-03-23T13:00:53;-1.24;71.56
72762;SHT30;60886;55.034;73.150;2024-03-23T13:03:55;-1.32;71.39
72762;SHT30;60886;55.034;73.150;2024-03-23T13:06:56;-1.36;71.80
72762;SHT30;60886;55.034;73.150;2024-03-23T13:09:58;-1.43;71.60
72762;SHT30;60886;55.034;73.150;2024-03-23T13:13:00;-1.48;71.69
72762;SHT30;60886;55.034;73.150;2024-03-23T13:16:21;-1.43;72.73
72762;SHT30;60886;55.034;73.150;2024-03-23T13:19:22;-1.48;72.02
72762;SHT30;60886;55.034;73.150;2024-03-23T13:22:28;-1.59;71.99
72762;SHT30;60886;55.034;73.150;2024-03-23T13:25:29;-1.67;72.16
72762;SHT30;60886;55.034;73.150;2024-03-23T13:28:31;-1.67;72.36
72762;SHT30;60886;55.034;73.150;2024-03-23T13:31:37;-1.76;72.48
72762;SHT30;60886;55.034;73.150;2024-03-23T13:34:39;-1.79;72.94
72762;SHT30;60886;55.034;73.150;2024-03-23T13:37:41;-1.82;72.85
72762;SHT30;60886;55.034;73.150;2024-03-23T13:40:56;-1.90;72.96
72762;SHT30;60886;55.034;73.150;2024-03-23T13:43:58;-1.91;73.09
72762;SHT30;60886;55.034;73.150;2024-03-23T13:46:59;-1.94;73.59
72762;SHT30;60886;55.034;73.150;2024-03-23T13:50:01;-2.03;73.63
72762;SHT30;60886;55.034;73.150;2024-03-23T13:53:04;-2.11;73.32
72762;SHT30;60886;55.034;73.150;2024-03-23T13:56:07;-2.15;73.91
72762;SHT30;60886;55.034;73.150;2024-03-23T13:59:08;-2.15;74.03
72762;SHT30;60886;55.034;73.150;2024-03-23T14:02:10;-2.15;73.90
72762;SHT30;60886;55.034;73.150;2024-03-23T14:05:12;-2.21;73.76
72762;SHT30;60886;55.034;73.150;2024-03-23T14:08:14;-2.28;74.19
72762;SHT30;60886;55.034;73.150;2024-03-23T14:11:18;-2.30;74.24
72762;SHT30;60886;55.034;73.150;2024-03-23T14:14:19;-2.31;74.70
72762;SHT30;60886;55.034;73.150;2024-03-23T14:17:23;-2.37;74.64
72762;SHT30;60886;55.034;73.150;2024-03-23T14:20:24;-2.42;74.68
72762;SHT30;60886;55.034;73.150;2024-03-23T14:23:29;-2.44;74.56
72762;SHT30;60886;55.034;73.150;2024-03-23T14:26:37;-2.42;74.80
72762;SHT30;60886;55.034;73.150;2024-03-23T14:29:40;-2.58;74.53
72762;SHT30;60886;55.034;73.150;2024-03-23T14:32:41;-2.65;75.00
72762;SHT30;60886;55.034;73.150;2024-03-23T14:35:43;-2.69;75.24
72762;SHT30;60886;55.034;73.150;2024-03-23T14:38:48;-2.76;75.00
72762;SHT30;60886;55.034;73.150;2024-03-23T14:41:50;-2.78;75.48
72762;SHT30;60886;55.034;73.150;2024-03-23T14:44:54;-2.82;75.25
72762;SHT30;60886;55.034;73.150;2024-03-23T14:47:56;-2.88;75.67
72762;SHT30;60886;55.034;73.150;2024-03-23T14:50:59;-2.92;75.54
72762;SHT30;60886;55.034;73.150;2024-03-23T14:54:01;-2.88;75.81
72762;SHT30;60886;55.034;73.150;2024-03-23T14:57:03;-2.88;75.30
72762;SHT30;60886;55.034;73.150;2024-03-23T15:00:09;-2.93;75.31
72762;SHT30;60886;55.034;73.150;2024-03-23T15:03:14;-2.99;75.75
72762;SHT30;60886;55.034;73.150;2024-03-23T15:06:18;-2.99;75.61
72762;SHT30;60886;55.034;73.150;2024-03-23T15:09:20;-3.09;75.34
72762;SHT30;60886;55.034;73.150;2024-03-23T15:12:21;-3.12;75.38
72762;SHT30;60886;55.034;73.150;2024-03-23T15:15:23;-3.14;75.94
72762;SHT30;60886;55.034;73.150;2024-03-23T15:18:24;-3.19;75.68
72762;SHT30;60886;55.034;73.150;2024-03-23T15:21:37;-3.26;75.79
72762;SHT30;60886;55.034;73.150;2024-03-23T15:24:42;-3.29;75.93
72762;SHT30;60886;55.034;73.150;2024-03-23T15:27:44;-3.29;75.90
72762;SHT30;60886;55.034;73.150;2024-03-23T15:30:45;-3.34;75.68
72762;SHT30;60886;55.034;73.150;2024-03-23T15:33:47;-3.33;76.06
72762;SHT30;60886;55.034;73.150;2024-03-23T15:36:48;-3.36;76.05
72762;SHT30;60886;55.034;73.150;2024-03-23T15:39:51;-3.40;75.98
72762;SHT30;60886;55.034;73.150;2024-03-23T15:42:53;-3.44;75.69
72762;SHT30;60886;55.034;73.150;2024-03-23T15:45:59;-3.42;76.00
72762;SHT30;60886;55.034;73.150;2024-03-23T15:49:01;-3.43;75.84
72762;SHT30;60886;55.034;73.150;2024-03-23T15:52:03;-3.46;75.72
72762;SHT30;60886;55.034;73.150;2024-03-23T15:55:05;-3.54;75.51
72762;SHT30;60886;55.034;73.150;2024-03-23T15:58:07;-3.60;75.67
72762;SHT30;60886;55.034;73.150;2024-03-23T16:01:10;-3.63;75.82
72762;SHT30;60886;55.034;73.150;2024-03-23T16:04:12;-3.63;76.10
72762;SHT30;60886;55.034;73.150;2024-03-23T16:07:14;-3.66;75.93
72762;SHT30;60886;55.034;73.150;2024-03-23T16:10:15;-3.67;75.97
72762;SHT30;60886;55.034;73.150;2024-03-23T16:13:19;-3.66;76.10
72762;SHT30;60886;55.034;73.150;2024-03-23T16:16:21;-3.70;75.87
72762;SHT30;60886;55.034;73.150;2024-03-23T16:19:25;-3.67;76.28
72762;SHT30;60886;55.034;73.150;2024-03-23T16:22:26;-3.60;76.14
72762;SHT30;60886;55.034;73.150;2024-03-23T16:25:28;-3.61;75.86
72762;SHT30;60886;55.034;73.150;2024-03-23T16:28:31;-3.66;76.03
72762;SHT30;60886;55.034;73.150;2024-03-23T16:31:54;-3.63;76.37
72762;SHT30;60886;55.034;73.150;2024-03-23T16:34:58;-3.71;76.02
72762;SHT30;60886;55.034;73.150;2024-03-23T16:38:00;-3.70;76.37
72762;SHT30;60886;55.034;73.150;2024-03-23T16:41:03;-3.70;76.54
72762;SHT30;60886;55.034;73.150;2024-03-23T16:44:08;-3.73;76.50
72762;SHT30;60886;55.034;73.150;2024-03-23T16:47:12;-3.77;76.39
72762;SHT30;60886;55.034;73.150;2024-03-23T16:50:14;-3.78;76.68
72762;SHT30;60886;55.034;73.150;2024-03-23T16:53:16;-3.85;76.58
72762;SHT30;60886;55.034;73.150;2024-03-23T16:56:17;-3.89;76.89
72762;SHT30;60886;55.034;73.150;2024-03-23T16:59:19;-3.88;76.83
72762;SHT30;60886;55.034;73.150;2024-03-23T17:02:24;-3.97;76.80
72762;SHT30;60886;55.034;73.150;2024-03-23T17:05:25;-3.97;76.98
72762;SHT30;60886;55.034;73.150;2024-03-23T17:08:27;-3.99;77.19
72762;SHT30;60886;55.034;73.150;2024-03-23T17:11:37;-4.08;77.14
72762;SHT30;60886;55.034;73.150;2024-03-23T17:14:39;-4.06;77.25
72762;SHT30;60886;55.034;73.150;2024-03-23T17:17:41;-4.05;77.59
72762;SHT30;60886;55.034;73.150;2024-03-23T17:20:43;-4.03;77.21
72762;SHT30;60886;55.034;73.150;2024-03-23T17:23:44;-4.06;77.67
72762;SHT30;60886;55.034;73.150;2024-03-23T17:26:46;-4.06;77.61
72762;SHT30;60886;55.034;73.150;2024-03-23T17:29:48;-4.06;77.73
72762;SHT30;60886;55.034;73.150;2024-03-23T17:32:49;-4.15;77.68
72762;SHT30;60886;55.034;73.150;2024-03-23T17:35:51;-4.16;77.92
72762;SHT30;60886;55.034;73.150;2024-03-23T17:38:54;-4.19;77.85
72762;SHT30;60886;55.034;73.150;2024-03-23T17:41:56;-4.25;77.98
72762;SHT30;60886;55.034;73.150;2024-03-23T17:44:57;-4.25;78.06
72762;SHT30;60886;55.034;73.150;2024-03-23T17:47:59;-4.30;78.03
72762;SHT30;60886;55.034;73.150;2024-03-23T17:51:02;-4.32;78.40
72762;SHT30;60886;55.034;73.150;2024-03-23T17:54:04;-4.36;78.20
72762;SHT30;60886;55.034;73.150;2024-03-23T17:57:06;-4.36;78.43
72762;SHT30;60886;55.034;73.150;2024-03-23T18:00:11;-4.45;78.44
72762;SHT30;60886;55.034;73.150;2024-03-23T18:03:13;-4.49;78.78
72762;SHT30;60886;55.034;73.150;2024-03-23T18:06:15;-4.52;78.93
72762;SHT30;60886;55.034;73.150;2024-03-23T18:09:17;-4.52;79.14
72762;SHT30;60886;55.034;73.150;2024-03-23T18:12:19;-4.49;79.38
72762;SHT30;60886;55.034;73.150;2024-03-23T18:15:22;-4.49;79.48
72762;SHT30;60886;55.034;73.150;2024-03-23T18:18:23;-4.52;79.30
72762;SHT30;60886;55.034;73.150;2024-03-23T18:21:26;-4.53;79.50
72762;SHT30;60886;55.034;73.150;2024-03-23T18:24:27;-4.54;79.45
72762;SHT30;60886;55.034;73.150;2024-03-23T18:27:29;-4.54;79.63
72762;SHT30;60886;55.034;73.150;2024-03-23T18:30:30;-4.57;79.22
72762;SHT30;60886;55.034;73.150;2024-03-23T18:33:37;-4.63;79.69
72762;SHT30;60886;55.034;73.150;2024-03-23T18:36:38;-4.70;79.33
72762;SHT30;60886;55.034;73.150;2024-03-23T18:39:40;-4.74;79.47
72762;SHT30;60886;55.034;73.150;2024-03-23T18:42:42;-4.73;80.42
72762;SHT30;60886;55.034;73.150;2024-03-23T18:45:50;-4.74;80.40
72762;SHT30;60886;55.034;73.150;2024-03-23T18:48:54;-4.76;80.90
72762;SHT30;60886;55.034;73.150;2024-03-23T18:51:56;-4.77;80.95
72762;SHT30;60886;55.034;73.150;2024-03-23T18:54:58;-4.85;80.52
72762;SHT30;60886;55.034;73.150;2024-03-23T18:58:00;-4.83;81.39
72762;SHT30;60886;55.034;73.150;2024-03-23T19:01:03;-4.79;81.40
72762;SHT30;60886;55.034;73.150;2024-03-23T19:04:05;-4.85;80.90
72762;SHT30;60886;55.034;73.150;2024-03-23T19:07:07;-4.90;81.08
72762;SHT30;60886;55.034;73.150;2024-03-23T19:10:08;-4.97;81.40
72762;SHT30;60886;55.034;73.150;2024-03-23T19:13:10;-4.98;81.64
72762;SHT30;60886;55.034;73.150;2024-03-23T19:16:12;-5.07;81.53
72762;SHT30;60886;55.034;73.150;2024-03-23T19:19:13;-5.09;81.75
72762;SHT30;60886;55.034;73.150;2024-03-23T19:22:15;-5.05;81.80
72762;SHT30;60886;55.034;73.150;2024-03-23T19:25:18;-5.08;81.77
72762;SHT30;60886;55.034;73.150;2024-03-23T19:28:20;-5.15;81.57
72762;SHT30;60886;55.034;73.150;2024-03-23T19:31:22;-5.21;81.68
72762;SHT30;60886;55.034;73.150;2024-03-23T19:34:23;-5.27;81.66
72762;SHT30;60886;55.034;73.150;2024-03-23T19:37:25;-5.32;81.84
72762;SHT30;60886;55.034;73.150;2024-03-23T19:40:27;-5.36;81.74
72762;SHT30;60886;55.034;73.150;2024-03-23T19:43:28;-5.39;81.87
72762;SHT30;60886;55.034;73.150;2024-03-23T19:46:37;-5.38;82.13
72762;SHT30;60886;55.034;73.150;2024-03-23T19:49:39;-5.43;81.93
72762;SHT30;60886;55.034;73.150;2024-03-23T19:52:41;-5.43;82.05
72762;SHT30;60886;55.034;73.150;2024-03-23T19:55:42;-5.49;81.90